Rechercher aéroport 
image banner adimage banner adimage banner ad
image banner ad

20CN - Ucsd Medical Center Hillcrest

Situé à San Diego, United States

ICAO - 20CN, IATA -

Données fournies par Airmate  

Information générale

Coordonnées: N32°45'15" W117°9'56"
Élévation : 403 feet MSL.
 
Voir autres Aéroports à California

Données opérationnelles

Special qualification required
Heure actuelle UTC:
Heure actuelle locale:
Météo à : KSAN - San Diego Intl ( 3 km )
METAR: KSAN 262251Z 30008KT 10SM BKN014 OVC020 23/18 A2995 RMK AO2 SLP143 T02330178
TAF: KSAN 262112Z 2621/2724 26008KT P6SM BKN012 FM270200 VRB05KT P6SM BKN015 FM271900 27009KT P6SM SCT020
Voir NOTAMs / SUP AIP / TFR affectant cet aéroport [VIEW]
Fréquences de communication: [VIEW]

Pistes:

Coordonnées de l'aéroport

Adresse: San Diego United States

Vue satellite de 20CN